Fort Campbell, KY

6:29 AM CDT on October 20, 2017 (GMT -0500)
Campbell Army Air Field

Weather History for KHOP - October, 2012

Change the Weather History Date:

Monday, October 1, 2012

  Actual Average Record
Temperature  
Mean Temperature 60 °F -  
Max Temperature 62 °F 75 °F 88 °F (2014)
Min Temperature 57 °F 50 °F 41 °F (2003)
Degree Days  
Heating Degree Days 6    
Growing Degree Days 10 (Base 50)    
Moisture  
Dew Point 59 °F    
Average Humidity 100    
Maximum Humidity 100    
Minimum Humidity 94    
Precipitation  
Precipitation 1.21 in - - ()
Sea Level Pressure  
Sea Level Pressure 29.64 in    
Wind  
Wind Speed 7 mph (NE)    
Max Wind Speed 21 mph    
Max Gust Speed 30 mph    
Visibility 7 miles    
Events Rain    
Averages and records for this station are not official NWS values.
T = Trace of Precipitation, MM = Missing Value Source: NWS Daily Summary

Daily Weather History Graph

Daily Weather History Graph

Search for Another Location

Airport or City:

Trip Planner

Search our weather history database for the weather conditions in past years. The results will help you decide how hot, cold, wet, or windy it might be!

Date:

Astronomy

Oct. 01, 2012 Rise Set
Actual Time 6:45 AM CDT 6:32 PM CDT
Civil Twilight 6:19 AM CDT 6:58 PM CDT
Nautical Twilight 5:49 AM CDT 7:28 PM CDT
Astronomical Twilight 5:19 AM CDT 7:58 PM CDT
Moon 7:13 PM CDT (10/1) 8:10 AM CDT (10/1)
Length of Visible Light 12h 38m
Length of Day
11h 47m
Full, 98% of the Moon is Illuminated
Oct 1
Full
Oct 8
Last Quarter
Oct 15
New
Oct 21
First Quarter
Oct 29
Full

Hourly Weather History & Observations

Time (CDT) Temp. Dew Point Humidity Pressure Visibility Wind Dir Wind Speed Gust Speed Precip Events Conditions
12:49 AM 62.6 °F 60.8 °F 94% 29.78 in 7.0 mi ENE 4.6 mph - N/A   Mostly Cloudy
12:52 AM 62.6 °F 60.8 °F 94% 29.78 in 7.0 mi ENE 3.5 mph - N/A   Mostly Cloudy
12:55 AM 62.4 °F 61.2 °F 96% 29.78 in 8.0 mi NE 3.5 mph - N/A   Mostly Cloudy
1:24 AM 62.6 °F 62.6 °F 100% 29.78 in 10.0 mi East 3.5 mph - N/A   Light Drizzle
1:25 AM 62.6 °F 62.6 °F 100% 29.78 in 10.0 mi East 3.5 mph - N/A   Light Drizzle
1:55 AM 62.2 °F 62.1 °F 99% 29.76 in 10.0 mi ESE 4.6 mph - 0.01 in   Light Drizzle
2:06 AM 62.6 °F 62.6 °F 100% 29.76 in 10.0 mi ESE 5.8 mph - N/A   Scattered Clouds
2:10 AM 62.6 °F 62.6 °F 100% 29.76 in 10.0 mi ESE 5.8 mph - N/A   Light Drizzle
2:50 AM 60.8 °F 60.8 °F 100% 29.74 in 10.0 mi East 4.6 mph - N/A   Partly Cloudy
2:55 AM 60.8 °F 60.4 °F 99% 29.74 in 10.0 mi East 4.6 mph - 0.00 in   Partly Cloudy
3:16 AM 60.8 °F 60.8 °F 100% 29.74 in 10.0 mi ESE 3.5 mph - N/A   Light Drizzle
3:51 AM 60.8 °F 60.8 °F 100% 29.74 in 9.0 mi ESE 5.8 mph - N/A   Drizzle
3:55 AM 59.9 °F 59.9 °F 100% 29.74 in 8.0 mi ESE 5.8 mph - 0.02 in   Drizzle
4:34 AM 59.0 °F 59.0 °F 100% 29.73 in 5.0 mi East 9.2 mph - N/A Rain Light Rain
4:41 AM 59.0 °F 59.0 °F 100% 29.73 in 4.0 mi East 6.9 mph - N/A Rain Rain
4:48 AM 59.0 °F 59.0 °F 100% 29.73 in 4.0 mi East 6.9 mph - N/A Rain Heavy Rain
4:55 AM 58.1 °F 58.1 °F 100% 29.73 in 4.0 mi East 6.9 mph - 0.14 in Rain Rain
5:08 AM 57.2 °F 57.2 °F 100% 29.73 in 2.5 mi ENE 8.1 mph - N/A Rain Heavy Rain
5:13 AM 57.2 °F 57.2 °F 100% 29.72 in 3.0 mi NE 8.1 mph - N/A Rain Heavy Rain
5:21 AM 57.2 °F 57.2 °F 100% 29.72 in 4.0 mi ENE 9.2 mph - N/A Rain Rain
5:30 AM 57.2 °F 57.2 °F 100% 29.72 in 6.0 mi ENE 10.4 mph - N/A Rain Light Rain
5:55 AM 57.7 °F 57.7 °F 100% 29.72 in 6.0 mi ENE 9.2 mph - 0.17 in Rain Light Rain
6:05 AM 57.2 °F 57.2 °F 100% 29.71 in 8.0 mi ENE 12.7 mph - N/A   Drizzle
6:30 AM 57.2 °F 57.2 °F 100% 29.71 in 8.0 mi NE 12.7 mph - N/A   Light Drizzle
6:34 AM 57.2 °F 57.2 °F 100% 29.71 in 8.0 mi NE 11.5 mph - N/A   Light Drizzle
6:55 AM 57.6 °F 57.6 °F 100% 29.71 in 9.0 mi NE 10.4 mph - 0.01 in Rain Light Rain
7:27 AM 57.2 °F 57.2 °F 100% 29.69 in 6.0 mi NE 10.4 mph - N/A Rain Light Rain
7:48 AM 57.2 °F 57.2 °F 100% 29.69 in 6.0 mi NE 13.8 mph - N/A Rain Light Rain
7:55 AM 57.7 °F 57.7 °F 100% 29.68 in 4.0 mi NE 15.0 mph - 0.04 in Rain Light Rain
8:21 AM 57.2 °F 57.2 °F 100% 29.68 in 3.0 mi NE 12.7 mph - N/A Rain Rain
8:28 AM 57.2 °F 57.2 °F 100% 29.68 in 2.5 mi NE 10.4 mph - N/A Rain Heavy Rain
8:38 AM 57.2 °F 57.2 °F 100% 29.68 in 3.0 mi NE 11.5 mph - N/A Rain Light Rain
8:44 AM 57.2 °F 57.2 °F 100% 29.68 in 2.5 mi NE 10.4 mph - N/A Rain Heavy Rain
8:55 AM 58.1 °F 58.1 °F 100% 29.68 in 2.5 mi NE 11.5 mph - 0.15 in Rain Heavy Rain
9:13 AM 59.0 °F 59.0 °F 100% 29.68 in 3.0 mi NNE 5.8 mph - N/A Rain Rain
9:34 AM 59.0 °F 59.0 °F 100% 29.67 in 2.5 mi NNE 8.1 mph - N/A Rain Rain
9:55 AM 58.6 °F 58.6 °F 100% 29.66 in 2.0 mi NE 11.5 mph - 0.18 in Rain Heavy Rain
10:04 AM 59.0 °F 59.0 °F 100% 29.66 in 3.0 mi NE 13.8 mph - N/A Rain Light Rain
10:14 AM 59.0 °F 59.0 °F 100% 29.65 in 6.0 mi NE 15.0 mph - N/A Rain Light Rain
10:17 AM 59.0 °F 59.0 °F 100% 29.65 in 5.0 mi NE 13.8 mph - N/A Rain Light Rain
10:29 AM 59.0 °F 59.0 °F 100% 29.65 in 6.0 mi NE 15.0 mph 20.7 mph N/A   Light Drizzle
10:53 AM 59.0 °F 59.0 °F 100% 29.64 in 2.5 mi NE 16.1 mph - N/A   Light Drizzle
10:55 AM 59.4 °F 59.4 °F 100% 29.64 in 2.0 mi NE 15.0 mph - 0.03 in Rain Rain
11:03 AM 59.0 °F 59.0 °F 100% 29.64 in 3.0 mi NE 13.8 mph - N/A Rain Light Rain
11:06 AM 59.0 °F 59.0 °F 100% 29.63 in 6.0 mi NE 15.0 mph - N/A Rain Light Rain
11:30 AM 59.0 °F 59.0 °F 100% 29.63 in 8.0 mi NNE 8.1 mph 19.6 mph N/A   Light Drizzle
11:39 AM 59.0 °F 59.0 °F 100% 29.63 in 8.0 mi North 5.8 mph 18.4 mph N/A   Light Drizzle
11:44 AM 59.0 °F 59.0 °F 100% 29.63 in 5.0 mi Variable 5.8 mph - N/A Rain Light Rain
11:49 AM 59.0 °F 59.0 °F 100% 29.62 in 1.8 mi NNE 8.1 mph - N/A Rain Heavy Rain
11:52 AM 59.0 °F 59.0 °F 100% 29.62 in 1.2 mi NNE 8.1 mph - N/A Rain Heavy Rain
11:55 AM 59.7 °F 59.7 °F 100% 29.62 in 1.0 mi NNE 6.9 mph - 0.18 in Rain Heavy Rain
11:59 AM 59.0 °F 59.0 °F 100% 29.62 in 1.2 mi NNE 8.1 mph - N/A Rain Heavy Rain
12:02 PM 59.0 °F 59.0 °F 100% 29.62 in 1.5 mi Variable 6.9 mph - N/A Rain Heavy Rain
12:05 PM 59.0 °F 59.0 °F 100% 29.63 in 2.0 mi Variable 4.6 mph - N/A Rain Light Rain
12:07 PM 59.0 °F 59.0 °F 100% 29.63 in 3.0 mi Variable 5.8 mph - N/A Rain Light Rain
12:15 PM 60.8 °F 60.8 °F 100% 29.63 in 2.5 mi Variable 3.5 mph - N/A Rain Rain
12:21 PM 60.8 °F 60.8 °F 100% 29.63 in 1.8 mi Variable 3.5 mph - N/A Rain Light Rain
12:23 PM 60.8 °F 60.8 °F 100% 29.63 in 1.5 mi Variable 3.5 mph - N/A Rain Heavy Rain
12:33 PM 60.8 °F 60.8 °F 100% 29.62 in 2.0 mi Variable 5.8 mph - N/A Rain Rain
12:37 PM 60.8 °F 60.8 °F 100% 29.62 in 2.5 mi NNE 6.9 mph - N/A Rain Light Rain
12:38 PM 60.8 °F 60.8 °F 100% 29.62 in 3.0 mi NNE 6.9 mph - N/A Rain Light Rain
12:55 PM 60.3 °F 60.3 °F 100% 29.61 in 3.0 mi NNE 5.8 mph - 0.15 in Rain Light Rain
1:11 PM 60.8 °F 60.8 °F 100% 29.59 in 10.0 mi NNE 8.1 mph - N/A   Overcast
1:19 PM 60.8 °F 60.8 °F 100% 29.60 in 10.0 mi Variable 6.9 mph - N/A   Overcast
1:30 PM 60.8 °F 60.8 °F 100% 29.59 in 10.0 mi Variable 6.9 mph - N/A   Overcast
1:39 PM 60.8 °F 60.8 °F 100% 29.60 in 10.0 mi NNE 9.2 mph - N/A   Light Drizzle
1:48 PM 60.8 °F 60.8 °F 100% 29.59 in 10.0 mi NNE 9.2 mph - N/A   Light Drizzle
1:54 PM 60.8 °F 60.8 °F 100% 29.60 in 10.0 mi NNE 9.2 mph - N/A   Overcast
1:55 PM 60.3 °F 60.3 °F 100% 29.60 in 10.0 mi NNE 6.9 mph - 0.01 in   Overcast
2:03 PM 60.8 °F 60.8 °F 100% 29.59 in 10.0 mi Variable 6.9 mph - N/A   Light Drizzle
2:07 PM 60.8 °F 60.8 °F 100% 29.58 in 10.0 mi NE 8.1 mph - N/A   Light Drizzle
2:15 PM 60.8 °F 60.8 °F 100% 29.54 in 10.0 mi NNE 12.7 mph 23.0 mph N/A Rain Light Rain
2:17 PM 60.8 °F 60.8 °F 100% 29.53 in 9.0 mi NE 11.5 mph 23.0 mph N/A Rain Light Rain
2:28 PM 60.8 °F 60.8 °F 100% 29.53 in 6.0 mi NE 20.7 mph 29.9 mph N/A Rain Rain
2:32 PM 60.8 °F 60.8 °F 100% 29.54 in 7.0 mi NE 15.0 mph 29.9 mph N/A Rain Light Rain
2:38 PM 60.8 °F 60.8 °F 100% 29.56 in 10.0 mi NNE 9.2 mph 24.2 mph N/A Rain Light Rain
2:45 PM 60.8 °F 60.8 °F 100% 29.57 in 10.0 mi Variable 3.5 mph - N/A   Overcast
2:55 PM 60.6 °F 60.6 °F 100% 29.57 in 10.0 mi NNE 4.6 mph - 0.03 in   Overcast
2:58 PM 60.8 °F 60.8 °F 100% 29.57 in 10.0 mi NE 8.1 mph - N/A   Light Drizzle
3:00 PM 60.8 °F 60.8 °F 100% 29.57 in 10.0 mi NE 9.2 mph - N/A   Light Drizzle
3:36 PM 60.8 °F 60.8 °F 100% 29.55 in 10.0 mi Variable 6.9 mph - N/A   Overcast
3:39 PM 60.8 °F 60.8 °F 100% 29.55 in 10.0 mi NNE 8.1 mph - N/A   Overcast
3:42 PM 60.8 °F 60.8 °F 100% 29.54 in 10.0 mi NNE 8.1 mph - N/A   Light Drizzle
3:55 PM 61.0 °F 61.0 °F 100% 29.55 in 10.0 mi NE 10.4 mph - 0.02 in Rain Light Rain
4:13 PM 60.8 °F 60.8 °F 100% 29.54 in 8.0 mi NE 9.2 mph 18.4 mph N/A   Light Drizzle
4:24 PM 60.8 °F 60.8 °F 100% 29.56 in 10.0 mi North 6.9 mph - N/A   Overcast
4:55 PM 61.2 °F 61.2 °F 100% 29.57 in 10.0 mi Variable 3.5 mph - 0.00 in   Overcast
5:36 PM 60.8 °F 60.8 °F 100% 29.56 in 9.0 mi Variable 4.6 mph - N/A   Overcast
5:45 PM 60.8 °F 60.8 °F 100% 29.56 in 10.0 mi Variable 3.5 mph - N/A   Overcast
5:55 PM 60.3 °F 60.3 °F 100% 29.57 in 9.0 mi Calm Calm - N/A   Overcast
6:26 PM 60.8 °F 60.8 °F 100% 29.58 in 8.0 mi WNW 5.8 mph - N/A   Overcast
6:33 PM 60.8 °F 60.8 °F 100% 29.58 in 8.0 mi NW 8.1 mph - N/A   Light Drizzle
6:38 PM 60.8 °F 60.8 °F 100% 29.59 in 5.0 mi Variable 4.6 mph - N/A   Heavy Drizzle
6:55 PM 59.7 °F 59.7 °F 100% 29.58 in 4.0 mi Variable 6.9 mph - 0.02 in   Drizzle
7:49 PM 59.0 °F 59.0 °F 100% 29.60 in 8.0 mi Variable 5.8 mph - N/A   Overcast
7:53 PM 59.0 °F 59.0 °F 100% 29.60 in 8.0 mi WNW 6.9 mph - N/A   Overcast
7:55 PM 58.6 °F 58.6 °F 100% 29.60 in 8.0 mi WNW 6.9 mph - 0.01 in   Overcast
8:07 PM 59.0 °F 59.0 °F 100% 29.61 in 8.0 mi WNW 6.9 mph - N/A   Light Drizzle
8:50 PM 59.0 °F 59.0 °F 100% 29.63 in 7.0 mi WNW 5.8 mph - N/A   Light Drizzle
8:55 PM 58.1 °F 58.1 °F 100% 29.63 in 6.0 mi WNW 8.1 mph - 0.03 in Rain Light Rain
9:37 PM 57.2 °F 57.2 °F 100% 29.64 in 10.0 mi WNW 5.8 mph - N/A   Light Drizzle
9:48 PM 57.2 °F 57.2 °F 100% 29.64 in 10.0 mi Variable 4.6 mph - N/A   Overcast
9:52 PM 57.2 °F 57.2 °F 100% 29.64 in 10.0 mi Variable 5.8 mph - N/A   Overcast
9:55 PM 57.7 °F 57.7 °F 100% 29.65 in 10.0 mi WNW 5.8 mph - 0.01 in   Overcast
10:11 PM 57.2 °F 57.2 °F 100% 29.65 in 10.0 mi WNW 6.9 mph - N/A   Overcast
10:55 PM 57.6 °F 57.6 °F 100% 29.65 in 10.0 mi Variable 4.6 mph - N/A   Overcast
11:02 PM 57.2 °F 57.2 °F 100% 29.65 in 10.0 mi Variable 3.5 mph - N/A   Overcast
11:27 PM 57.2 °F 57.2 °F 100% 29.66 in 10.0 mi Calm Calm - N/A   Overcast
11:32 PM 57.2 °F 57.2 °F 100% 29.66 in 10.0 mi Variable 3.5 mph - N/A   Overcast
11:47 PM 57.2 °F 57.2 °F 100% 29.65 in 6.0 mi Variable 3.5 mph - N/A   Overcast
11:51 PM 57.2 °F 57.2 °F 100% 29.65 in 6.0 mi Variable 3.5 mph - N/A   Overcast
11:55 PM 57.4 °F 57.4 °F 100% 29.65 in 6.0 mi Variable 4.6 mph - N/A   Overcast
11:59 PM 57.2 °F 57.2 °F 100% 29.66 in 6.0 mi Variable 4.6 mph - N/A   Overcast